Three Rivers, New Mexico
Current Conditions -  °F | °C
As of 8:58 AM on Wednesday 26 Nov 2014 (Local Time) from KHMN Reporting Station
Clear Clear  
Wind Chill: 41°   Ceiling: Unl
Heat Index: 41°   Visibility: 10mi
Dew Point:   Wind: 0mph
Humidity: 26%   Direction: NA
Pressure: 30.36"   Gusts: NA
Location:  33.1487°N, 106.136°W
Report Text: KHMN 261558Z AUTO 00000KT 10SM CLR 05/M13 A3036 RMK AO2 SLP276
Loading
Personal Weather Stations






























Interactive Weather Map New forecast layout! Learn more

10-Day Weather Forecast

Advertisements
Track Severe Weather on mobile